createdAt,value
2022-12-22T00:00:37.223Z,1.47
2022-12-22T00:03:32.895Z,1.40
2022-12-22T00:06:28.494Z,0.73
2022-12-22T00:09:22.231Z,0.80
2022-12-22T00:12:15.455Z,1.17
2022-12-22T00:15:08.939Z,1.30
2022-12-22T00:18:02.884Z,1.03
2022-12-22T00:20:56.067Z,1.00
2022-12-22T00:23:49.494Z,1.50
2022-12-22T00:26:42.693Z,1.17
2022-12-22T00:29:36.600Z,1.07
2022-12-22T00:32:32.993Z,1.30
2022-12-22T00:35:33.333Z,1.50
2022-12-22T00:38:39.193Z,2.00
2022-12-22T00:41:32.714Z,3.67
2022-12-22T00:44:26.222Z,2.00
2022-12-22T00:47:19.690Z,1.87
2022-12-22T00:50:12.829Z,1.53
2022-12-22T00:53:06.049Z,1.40
2022-12-22T00:55:59.733Z,0.90
2022-12-22T00:58:53.835Z,0.90
2022-12-22T01:01:47.171Z,1.40
2022-12-22T01:04:40.617Z,1.03
2022-12-22T01:07:44.772Z,1.50
2022-12-22T01:10:41.886Z,1.10
2022-12-22T01:13:36.161Z,1.40
2022-12-22T01:16:31.060Z,2.93
2022-12-22T01:19:24.387Z,0.90
2022-12-22T01:22:17.857Z,0.90
2022-12-22T01:25:11.143Z,1.03
2022-12-22T01:28:04.423Z,1.00
2022-12-22T01:30:58.040Z,1.10
2022-12-22T01:33:51.355Z,1.03
2022-12-22T01:36:44.565Z,1.97
2022-12-22T01:39:37.710Z,1.00
2022-12-22T01:42:31.850Z,1.63
2022-12-22T01:45:49.821Z,2.13
2022-12-22T01:48:48.810Z,0.83
2022-12-22T01:51:46.591Z,1.10
2022-12-22T01:54:39.940Z,1.17
2022-12-22T01:57:33.481Z,0.80
2022-12-22T02:00:27.887Z,1.27
2022-12-22T02:03:21.713Z,1.20
2022-12-22T02:06:56.189Z,2.00
2022-12-22T02:10:16.568Z,1.40
2022-12-22T02:13:26.983Z,1.13
2022-12-22T02:16:52.464Z,1.23
2022-12-22T02:20:12.453Z,0.70
2022-12-22T02:23:28.783Z,0.90
2022-12-22T02:26:55.456Z,1.10
2022-12-22T02:29:56.300Z,0.80
2022-12-22T02:32:54.580Z,2.10
2022-12-22T02:36:00.535Z,1.63
2022-12-22T02:39:11.337Z,0.80
2022-12-22T02:42:16.047Z,0.70
2022-12-22T02:45:22.991Z,1.30
2022-12-22T02:48:25.369Z,0.90
2022-12-22T02:51:27.626Z,0.80
2022-12-22T02:54:23.456Z,0.97
2022-12-22T02:57:16.602Z,0.80
2022-12-22T03:00:09.826Z,1.27
2022-12-22T03:03:03.264Z,1.00
2022-12-22T03:05:56.502Z,0.70
2022-12-22T03:08:49.924Z,1.13
2022-12-22T03:11:43.503Z,0.70
2022-12-22T03:14:36.732Z,3.30
2022-12-22T03:17:30.149Z,1.23
2022-12-22T03:20:24.571Z,0.70
2022-12-22T03:23:26.451Z,0.83
2022-12-22T03:26:01.452Z,1.07
2022-12-22T03:28:36.298Z,0.83
2022-12-22T03:31:12.914Z,3.43
2022-12-22T03:33:47.952Z,2.30
2022-12-22T03:36:22.907Z,0.70
2022-12-22T03:38:57.793Z,0.80
2022-12-22T03:41:50.993Z,1.43
2022-12-22T03:44:44.198Z,1.40
2022-12-22T03:47:19.045Z,0.70
2022-12-22T03:49:53.910Z,0.60
2022-12-22T03:52:28.768Z,1.17
2022-12-22T03:55:03.857Z,2.77
2022-12-22T03:57:38.673Z,0.80
2022-12-22T04:00:14.248Z,0.70
2022-12-22T04:02:49.288Z,0.90
2022-12-22T04:05:24.214Z,1.33
2022-12-22T04:07:59.087Z,0.80
2022-12-22T04:10:52.292Z,0.70
2022-12-22T04:13:27.150Z,1.47
2022-12-22T04:16:02.024Z,2.10
2022-12-22T04:18:38.861Z,1.13
2022-12-22T04:21:13.781Z,0.80
2022-12-22T04:23:51.255Z,1.43
2022-12-22T04:26:26.776Z,1.23
2022-12-22T04:29:01.754Z,2.27
2022-12-22T04:31:36.729Z,0.60
2022-12-22T04:34:11.664Z,0.70
2022-12-22T04:36:46.565Z,0.60
2022-12-22T04:39:21.436Z,0.70
2022-12-22T04:41:56.318Z,0.70
2022-12-22T04:44:31.198Z,0.57
2022-12-22T04:47:06.121Z,1.20
2022-12-22T04:49:41.019Z,0.60
2022-12-22T04:52:15.982Z,1.37
2022-12-22T04:54:50.809Z,0.60
2022-12-22T04:57:25.814Z,0.50
2022-12-22T05:00:00.748Z,1.83
2022-12-22T05:02:35.801Z,0.90
2022-12-22T05:05:10.853Z,1.57
2022-12-22T05:07:45.810Z,1.37
2022-12-22T05:10:20.764Z,1.50
2022-12-22T05:12:55.849Z,0.50
2022-12-22T05:15:33.429Z,0.70
2022-12-22T05:18:08.456Z,1.07
2022-12-22T05:20:43.551Z,1.70
2022-12-22T05:23:18.580Z,0.60
2022-12-22T05:25:53.461Z,0.60
2022-12-22T05:28:28.527Z,0.80
2022-12-22T05:31:10.286Z,1.73
2022-12-22T05:33:45.463Z,1.37
2022-12-22T05:36:20.444Z,1.27
2022-12-22T05:38:55.381Z,3.67
2022-12-22T05:41:30.298Z,1.67
2022-12-22T05:44:05.468Z,1.00
2022-12-22T05:46:40.516Z,1.70
2022-12-22T05:49:15.492Z,0.93
2022-12-22T05:51:51.672Z,0.90
2022-12-22T05:54:26.584Z,1.20
2022-12-22T05:57:01.424Z,1.27
2022-12-22T05:59:36.322Z,2.23
2022-12-22T06:02:11.547Z,1.47
2022-12-22T06:04:46.531Z,3.17
2022-12-22T06:07:21.451Z,2.00
2022-12-22T06:09:56.377Z,1.33
2022-12-22T06:12:31.242Z,1.33
2022-12-22T06:15:07.829Z,3.77
2022-12-22T06:17:45.078Z,2.00
2022-12-22T06:20:20.442Z,3.27
2022-12-22T06:22:55.363Z,2.07
2022-12-22T06:25:30.215Z,1.53
2022-12-22T06:28:05.209Z,1.90
2022-12-22T06:30:40.058Z,1.27
2022-12-22T06:33:15.133Z,1.87
2022-12-22T06:35:57.632Z,2.10
2022-12-22T06:38:34.581Z,2.00
2022-12-22T06:41:09.445Z,2.13
2022-12-22T06:43:44.275Z,5.27
2022-12-22T06:46:19.155Z,5.00
2022-12-22T06:48:54.029Z,4.23
2022-12-22T06:51:28.901Z,2.00
2022-12-22T06:54:04.324Z,4.30
2022-12-22T06:56:39.197Z,1.27
2022-12-22T06:59:14.471Z,3.87
2022-12-22T07:01:49.354Z,2.43
2022-12-22T07:04:24.216Z,1.80
2022-12-22T07:06:59.074Z,3.90
2022-12-22T07:09:33.922Z,3.40
2022-12-22T07:12:08.750Z,3.90
2022-12-22T07:14:43.597Z,4.87
2022-12-22T07:17:18.497Z,2.30
2022-12-22T07:19:53.496Z,3.47
2022-12-22T07:22:30.610Z,2.97
2022-12-22T07:25:06.722Z,4.60
2022-12-22T07:27:42.447Z,2.17
2022-12-22T07:30:17.348Z,7.50
2022-12-22T07:32:52.243Z,2.90
2022-12-22T07:35:27.060Z,9.33
2022-12-22T07:38:01.901Z,3.90
2022-12-22T07:40:41.327Z,3.90
2022-12-22T07:43:16.923Z,5.17
2022-12-22T07:45:51.767Z,4.60
2022-12-22T07:48:44.919Z,3.80
2022-12-22T07:51:19.751Z,5.60
2022-12-22T07:53:54.611Z,4.07
2022-12-22T07:56:29.980Z,3.50
2022-12-22T07:59:05.670Z,1.73
2022-12-22T08:01:41.572Z,2.17
2022-12-22T08:04:16.892Z,3.60
2022-12-22T08:06:51.816Z,2.10
2022-12-22T08:09:26.693Z,3.27
2022-12-22T08:12:01.561Z,2.80
2022-12-22T08:14:36.414Z,4.37
2022-12-22T08:17:14.938Z,1.47
2022-12-22T08:19:49.859Z,3.90
2022-12-22T08:22:25.019Z,1.60
2022-12-22T08:24:59.879Z,2.50
2022-12-22T08:27:44.040Z,4.27
2022-12-22T08:30:20.246Z,2.97
2022-12-22T08:32:55.119Z,5.33
2022-12-22T08:35:30.041Z,4.30
2022-12-22T08:38:05.662Z,5.43
2022-12-22T08:40:45.337Z,3.60
2022-12-22T08:43:21.766Z,3.70
2022-12-22T08:45:56.623Z,2.87
2022-12-22T08:48:32.446Z,4.23
2022-12-22T08:51:07.339Z,2.30
2022-12-22T08:56:37.503Z,3.40
2022-12-22T08:59:13.294Z,3.63
2022-12-22T09:01:50.681Z,5.17
2022-12-22T09:04:26.239Z,5.03
2022-12-22T09:07:02.620Z,3.80
2022-12-22T09:09:37.600Z,3.53
2022-12-22T09:12:12.593Z,4.60
2022-12-22T09:14:47.444Z,3.00
2022-12-22T09:17:22.299Z,1.23
2022-12-22T09:19:57.166Z,6.00
2022-12-22T09:22:32.070Z,3.27
2022-12-22T09:25:07.903Z,6.70
2022-12-22T09:27:42.755Z,2.50
2022-12-22T09:30:17.716Z,6.87
2022-12-22T09:32:55.111Z,4.17
2022-12-22T09:35:29.963Z,2.17
2022-12-22T09:38:04.788Z,2.57
2022-12-22T09:40:39.677Z,6.90
2022-12-22T09:43:21.136Z,2.93
2022-12-22T09:45:58.365Z,3.17
2022-12-22T09:48:37.224Z,5.03
2022-12-22T09:51:14.244Z,5.57
2022-12-22T09:53:55.372Z,2.50
2022-12-22T09:56:31.161Z,1.10
2022-12-22T09:59:15.718Z,2.40
2022-12-22T10:02:12.135Z,2.97
2022-12-22T10:05:30.838Z,2.37
2022-12-22T10:08:13.251Z,2.60
2022-12-22T10:10:54.724Z,4.93
2022-12-22T10:13:30.158Z,2.53
2022-12-22T10:16:27.648Z,6.63
2022-12-22T10:19:12.708Z,1.93
2022-12-22T10:21:48.033Z,3.13
2022-12-22T10:24:35.543Z,1.73
2022-12-22T10:27:10.623Z,3.60
2022-12-22T10:29:45.508Z,1.93
2022-12-22T10:32:21.287Z,1.40
2022-12-22T10:35:04.552Z,0.70
2022-12-22T10:37:40.789Z,2.27
2022-12-22T10:40:22.353Z,0.90
2022-12-22T10:42:57.490Z,3.10
2022-12-22T10:45:32.827Z,2.30
2022-12-22T10:48:07.801Z,3.63
2022-12-22T10:50:48.749Z,1.67
2022-12-22T10:53:46.049Z,3.40
2022-12-22T10:56:27.841Z,0.80
2022-12-22T10:59:02.599Z,5.40
2022-12-22T11:01:37.913Z,2.53
2022-12-22T11:04:27.962Z,2.87
2022-12-22T11:07:08.354Z,2.53
2022-12-22T11:09:43.311Z,2.90
2022-12-22T11:12:32.547Z,2.27
2022-12-22T11:15:39.929Z,1.97
2022-12-22T11:18:20.577Z,3.47
2022-12-22T11:21:11.466Z,1.90
2022-12-22T11:24:21.625Z,2.37
2022-12-22T11:27:33.052Z,2.37
2022-12-22T11:30:23.978Z,1.37
2022-12-22T11:33:42.880Z,1.33
2022-12-22T11:37:02.946Z,2.13
2022-12-22T11:39:51.860Z,1.87
2022-12-22T11:42:47.271Z,1.77
2022-12-22T11:45:51.807Z,0.93
2022-12-22T11:49:12.782Z,0.67
2022-12-22T11:52:22.177Z,1.87
2022-12-22T11:55:34.603Z,2.63
2022-12-22T11:58:46.992Z,0.87
2022-12-22T12:01:33.747Z,0.80
2022-12-22T12:04:38.056Z,2.00
2022-12-22T12:07:35.318Z,0.97
2022-12-22T12:10:26.311Z,0.70
2022-12-22T12:13:48.176Z,0.80
2022-12-22T12:16:34.926Z,1.53
2022-12-22T12:19:31.437Z,0.87
2022-12-22T12:22:31.441Z,0.70
2022-12-22T12:25:32.564Z,1.60
2022-12-22T12:28:32.617Z,4.47
2022-12-22T12:31:09.327Z,0.80
2022-12-22T12:33:52.585Z,1.43
2022-12-22T12:36:56.663Z,1.80
2022-12-22T12:39:52.009Z,0.60
2022-12-22T12:42:41.005Z,0.70
2022-12-22T12:45:45.177Z,2.77
2022-12-22T12:48:25.625Z,0.70
2022-12-22T12:51:00.476Z,0.97
2022-12-22T12:53:35.352Z,1.17
2022-12-22T12:56:10.300Z,2.13
2022-12-22T12:58:46.314Z,0.67
2022-12-22T13:01:26.957Z,2.47
2022-12-22T13:04:04.148Z,1.37
2022-12-22T13:06:51.860Z,1.20
2022-12-22T13:12:51.032Z,1.30
2022-12-22T13:15:42.196Z,1.40
2022-12-22T13:18:26.447Z,0.80
2022-12-22T13:21:50.813Z,0.93
2022-12-22T13:24:30.323Z,1.30
2022-12-22T13:27:10.339Z,0.80
2022-12-22T13:29:47.741Z,0.77
2022-12-22T13:32:34.597Z,0.87
2022-12-22T13:35:46.917Z,2.17
2022-12-22T13:38:35.107Z,0.50
2022-12-22T13:41:26.601Z,0.87
2022-12-22T13:44:11.156Z,1.73
2022-12-22T13:46:46.380Z,1.47
2022-12-22T13:49:59.313Z,1.37
2022-12-22T13:52:25.480Z,1.23
2022-12-22T13:55:00.980Z,2.53
2022-12-22T13:57:35.880Z,0.93
2022-12-22T14:00:31.152Z,1.27
2022-12-22T14:03:41.690Z,2.20
2022-12-22T14:06:32.287Z,1.13
2022-12-22T14:09:12.183Z,1.47
2022-12-22T14:12:07.293Z,3.23
2022-12-22T14:14:46.884Z,1.00
2022-12-22T14:17:34.005Z,2.07
2022-12-22T14:20:37.180Z,2.00
2022-12-22T14:23:24.798Z,2.60
2022-12-22T14:26:01.784Z,3.17
2022-12-22T14:28:50.668Z,1.80
2022-12-22T14:31:25.593Z,1.93
2022-12-22T14:34:05.216Z,2.23
2022-12-22T14:36:45.986Z,1.93
2022-12-22T14:39:25.496Z,5.20
2022-12-22T14:42:04.236Z,2.03
2022-12-22T14:44:47.483Z,2.10
2022-12-22T14:47:26.041Z,2.97
2022-12-22T14:50:16.684Z,1.50
2022-12-22T14:53:00.265Z,4.93
2022-12-22T14:55:41.321Z,2.27
2022-12-22T14:58:29.777Z,4.17
2022-12-22T15:01:21.445Z,3.10
2022-12-22T15:04:17.983Z,4.77
2022-12-22T15:07:07.116Z,2.53
2022-12-22T15:12:38.170Z,5.57
2022-12-22T15:15:20.284Z,2.10
2022-12-22T15:17:55.889Z,2.63
2022-12-22T15:20:37.048Z,4.53
2022-12-22T15:23:17.119Z,3.33
2022-12-22T15:25:52.318Z,3.07
2022-12-22T15:28:27.207Z,3.10
2022-12-22T15:31:04.978Z,3.73
2022-12-22T15:33:40.134Z,3.00
2022-12-22T15:36:15.765Z,2.20
2022-12-22T15:38:51.172Z,2.50
2022-12-22T15:41:26.099Z,3.83
2022-12-22T15:44:01.041Z,4.90
2022-12-22T15:46:36.610Z,2.30
2022-12-22T15:49:21.045Z,2.53
2022-12-22T15:52:01.004Z,3.00
2022-12-22T15:54:36.957Z,3.83
2022-12-22T15:57:14.267Z,5.17
2022-12-22T15:59:49.111Z,3.77
2022-12-22T16:02:24.127Z,3.47
2022-12-22T16:04:59.146Z,2.83
2022-12-22T16:07:34.116Z,2.67
2022-12-22T16:10:27.472Z,2.70
2022-12-22T16:13:03.827Z,5.53
2022-12-22T16:15:40.040Z,7.40
2022-12-22T16:18:15.258Z,8.77
2022-12-22T16:20:50.788Z,4.33
2022-12-22T16:23:27.260Z,6.03
2022-12-22T16:26:04.846Z,4.60
2022-12-22T16:28:39.720Z,6.60
2022-12-22T16:31:22.461Z,2.00
2022-12-22T16:33:57.393Z,2.20
2022-12-22T16:36:32.856Z,3.73
2022-12-22T16:39:08.007Z,3.23
2022-12-22T16:41:44.228Z,5.23
2022-12-22T16:47:36.742Z,4.20
2022-12-22T16:50:25.303Z,4.37
2022-12-22T16:53:03.733Z,7.13
2022-12-22T16:55:38.575Z,9.27
2022-12-22T16:58:14.253Z,6.63
2022-12-22T17:00:50.847Z,3.80
2022-12-22T17:03:27.448Z,1.90
2022-12-22T17:06:05.094Z,3.83
2022-12-22T17:08:42.608Z,2.80
2022-12-22T17:11:23.917Z,6.60
2022-12-22T17:14:12.656Z,5.00
2022-12-22T17:16:47.729Z,5.67
2022-12-22T17:19:22.995Z,2.67
2022-12-22T17:21:59.073Z,6.20
2022-12-22T17:24:33.973Z,5.50
2022-12-22T17:27:12.762Z,3.13
2022-12-22T17:29:47.751Z,4.70
2022-12-22T17:32:22.985Z,5.10
2022-12-22T17:34:57.877Z,3.17
2022-12-22T17:37:32.780Z,4.63
2022-12-22T17:40:14.487Z,3.40
2022-12-22T17:42:49.732Z,4.70
2022-12-22T17:45:25.247Z,5.93
2022-12-22T17:48:00.335Z,5.10
2022-12-22T17:50:35.955Z,8.83
2022-12-22T17:53:15.176Z,4.23
2022-12-22T17:56:07.651Z,5.43
2022-12-22T17:58:43.680Z,8.23
2022-12-22T18:01:31.824Z,7.27
2022-12-22T18:04:09.976Z,6.90
2022-12-22T18:06:45.406Z,6.67
2022-12-22T18:09:24.822Z,5.93
2022-12-22T18:11:59.706Z,7.43
2022-12-22T18:14:34.615Z,10.43
2022-12-22T18:17:35.162Z,6.90
2022-12-22T18:20:17.023Z,9.80
2022-12-22T18:23:02.058Z,5.40
2022-12-22T18:25:37.429Z,11.20
2022-12-22T18:28:17.047Z,9.57
2022-12-22T18:30:51.947Z,8.77
2022-12-22T18:33:26.962Z,3.73
2022-12-22T18:36:02.104Z,5.33
2022-12-22T18:38:37.357Z,7.63
2022-12-22T18:41:22.088Z,6.30
2022-12-22T18:43:57.091Z,15.20
2022-12-22T18:46:31.994Z,8.60
2022-12-22T18:49:07.432Z,7.50
2022-12-22T18:51:44.457Z,8.80
2022-12-22T18:54:33.247Z,10.20
2022-12-22T18:57:17.685Z,11.97
2022-12-22T18:59:52.523Z,7.23
2022-12-22T19:02:29.756Z,13.73
2022-12-22T19:05:18.819Z,5.90
2022-12-22T19:07:54.548Z,10.40
2022-12-22T19:10:41.526Z,6.60
2022-12-22T19:13:28.415Z,9.20
2022-12-22T19:16:04.044Z,12.13
2022-12-22T19:18:39.011Z,8.10
2022-12-22T19:21:16.848Z,7.67
2022-12-22T19:23:53.075Z,10.03
2022-12-22T19:26:28.073Z,9.87
2022-12-22T19:29:04.314Z,9.67
2022-12-22T19:31:40.063Z,7.30
2022-12-22T19:34:20.138Z,5.67
2022-12-22T19:36:55.128Z,6.93
2022-12-22T19:39:30.186Z,3.77
2022-12-22T19:42:05.151Z,10.80
2022-12-22T19:44:40.271Z,8.73
2022-12-22T19:47:20.129Z,8.43
2022-12-22T19:49:55.796Z,6.90
2022-12-22T19:52:30.657Z,5.00
2022-12-22T19:55:06.322Z,7.70
2022-12-22T19:57:44.101Z,7.00
2022-12-22T20:00:24.177Z,8.60
2022-12-22T20:02:59.227Z,3.87
2022-12-22T20:05:34.260Z,7.77
2022-12-22T20:08:09.501Z,3.83
2022-12-22T20:10:45.839Z,9.20
2022-12-22T20:13:21.798Z,5.10
2022-12-22T20:15:56.745Z,3.30
2022-12-22T20:18:32.061Z,9.00
2022-12-22T20:21:19.469Z,9.47
2022-12-22T20:23:56.962Z,2.53
2022-12-22T20:26:32.429Z,6.40
2022-12-22T20:29:12.447Z,6.07
2022-12-22T20:31:47.612Z,10.37
2022-12-22T20:34:22.615Z,4.63
2022-12-22T20:36:58.607Z,5.50
2022-12-22T20:39:33.467Z,5.50
2022-12-22T20:42:21.936Z,8.77
2022-12-22T20:45:02.969Z,6.53
2022-12-22T20:47:39.561Z,5.17
2022-12-22T20:50:27.642Z,3.43
2022-12-22T20:53:02.866Z,3.80
2022-12-22T20:55:38.003Z,7.10
2022-12-22T20:58:22.633Z,5.37
2022-12-22T21:01:03.104Z,6.40
2022-12-22T21:03:38.093Z,2.10
2022-12-22T21:06:30.808Z,2.80
2022-12-22T21:09:06.251Z,4.03
2022-12-22T21:11:41.246Z,4.37
2022-12-22T21:14:16.883Z,4.43
2022-12-22T21:16:52.250Z,5.00
2022-12-22T21:19:27.600Z,3.10
2022-12-22T21:22:02.583Z,3.87
2022-12-22T21:24:38.322Z,4.50
2022-12-22T21:27:19.153Z,3.53
2022-12-22T21:29:54.100Z,3.20
2022-12-22T21:32:28.966Z,1.63
2022-12-22T21:35:08.061Z,1.90
2022-12-22T21:37:46.214Z,3.87
2022-12-22T21:40:27.640Z,1.97
2022-12-22T21:43:02.573Z,2.80
2022-12-22T21:45:42.762Z,1.50
2022-12-22T21:48:21.199Z,1.10
2022-12-22T21:50:56.161Z,2.53
2022-12-22T21:53:31.302Z,3.93
2022-12-22T21:56:17.672Z,1.93
2022-12-22T21:59:00.249Z,3.03
2022-12-22T22:01:40.483Z,2.20
2022-12-22T22:04:15.810Z,3.20
2022-12-22T22:06:50.798Z,4.00
2022-12-22T22:09:25.734Z,1.80
2022-12-22T22:12:22.045Z,3.17
2022-12-22T22:15:01.876Z,5.10
2022-12-22T22:17:37.391Z,3.23
2022-12-22T22:20:25.838Z,2.83
2022-12-22T22:23:02.020Z,1.43
2022-12-22T22:25:36.888Z,7.40
2022-12-22T22:28:11.855Z,3.23
2022-12-22T22:30:46.882Z,5.87
2022-12-22T22:33:22.009Z,4.33
2022-12-22T22:36:00.717Z,2.77
2022-12-22T22:38:40.614Z,1.60
2022-12-22T22:41:15.443Z,6.33
2022-12-22T22:43:54.617Z,2.20
2022-12-22T22:46:29.596Z,3.03
2022-12-22T22:49:04.635Z,4.23
2022-12-22T22:51:39.572Z,3.73
2022-12-22T22:54:14.429Z,3.10
2022-12-22T22:56:49.268Z,2.33
2022-12-22T22:59:24.184Z,2.03
2022-12-22T23:01:59.430Z,4.43
2022-12-22T23:04:34.559Z,2.33
2022-12-22T23:07:09.427Z,3.10
2022-12-22T23:09:44.561Z,3.83
2022-12-22T23:12:19.431Z,1.60
2022-12-22T23:14:54.398Z,2.23
2022-12-22T23:17:29.699Z,2.90
2022-12-22T23:20:05.312Z,1.70
2022-12-22T23:22:40.196Z,3.03
2022-12-22T23:25:15.637Z,1.07
2022-12-22T23:27:50.511Z,1.80
2022-12-22T23:30:25.424Z,4.20
2022-12-22T23:33:00.338Z,1.97
2022-12-22T23:35:40.782Z,1.50
2022-12-22T23:38:17.480Z,1.70
2022-12-22T23:40:54.128Z,3.23
2022-12-22T23:43:29.795Z,1.40
2022-12-22T23:46:11.278Z,0.73
2022-12-22T23:48:52.152Z,1.73
2022-12-22T23:51:28.853Z,1.43
2022-12-22T23:54:04.300Z,3.03
2022-12-22T23:56:39.206Z,3.40
2022-12-22T23:59:14.074Z,3.10
